<?xml version="1.0" encoding="UTF-8" standalone="no" ?>
<gpx xmlns="http://www.topografix.com/GPX/1/1" xmlns:xsi="http://www.w3.org/2001/XMLSchema-instance" xsi:schemaLocation="http://www.topografix.com/GPX/1/1 http://www.topografix.com/GPX/1/1/gpx.xsd" version="1.1" creator="VisuGPX - https://www.visugpx.com">
  <metadata>
    <name>Circuit du 14-09-2012</name>
    <desc><![CDATA[Circuit du 14-09-2012]]></desc>
  </metadata>
  <wpt lat="45.38382" lon="3.75153">
    <ele>661.70001220703</ele>
    <name><![CDATA[Start]]></name>
  </wpt>
  <wpt lat="45.39049" lon="3.75936">
    <ele>650.29998779297</ele>
    <name><![CDATA[End]]></name>
  </wpt>
  <trk>
    <name><![CDATA[Circuit du 14-09-2012_1]]></name>
    <trkseg>
      <trkpt lat="45.38382" lon="3.75153">
        <ele>661.70001220703</ele>
        <time>2012-09-14T16:31:07Z</time>
      </trkpt>
      <trkpt lat="45.38385" lon="3.7516">
        <ele>659.29998779297</ele>
        <time>2012-09-14T16:31:11Z</time>
      </trkpt>
      <trkpt lat="45.38388" lon="3.75173">
        <ele>660.20001220703</ele>
        <time>2012-09-14T16:31:17Z</time>
      </trkpt>
      <trkpt lat="45.3839" lon="3.75179">
        <ele>660.09997558594</ele>
        <time>2012-09-14T16:31:19Z</time>
      </trkpt>
      <trkpt lat="45.38394" lon="3.75187">
        <ele>660.20001220703</ele>
        <time>2012-09-14T16:31:21Z</time>
      </trkpt>
      <trkpt lat="45.38394" lon="3.75194">
        <ele>660.70001220703</ele>
        <time>2012-09-14T16:31:22Z</time>
      </trkpt>
      <trkpt lat="45.38396" lon="3.752">
        <ele>660</ele>
        <time>2012-09-14T16:31:24Z</time>
      </trkpt>
      <trkpt lat="45.38399" lon="3.75215">
        <ele>660.70001220703</ele>
        <time>2012-09-14T16:31:29Z</time>
      </trkpt>
      <trkpt lat="45.38401" lon="3.75221">
        <ele>660.09997558594</ele>
        <time>2012-09-14T16:31:32Z</time>
      </trkpt>
      <trkpt lat="45.38404" lon="3.7523">
        <ele>660.40002441406</ele>
        <time>2012-09-14T16:31:35Z</time>
      </trkpt>
      <trkpt lat="45.38404" lon="3.75237">
        <ele>659.5</ele>
        <time>2012-09-14T16:31:37Z</time>
      </trkpt>
      <trkpt lat="45.38406" lon="3.75243">
        <ele>659.20001220703</ele>
        <time>2012-09-14T16:31:40Z</time>
      </trkpt>
      <trkpt lat="45.3841" lon="3.75255">
        <ele>659.20001220703</ele>
        <time>2012-09-14T16:31:45Z</time>
      </trkpt>
      <trkpt lat="45.38416" lon="3.7526">
        <ele>659.79998779297</ele>
        <time>2012-09-14T16:31:47Z</time>
      </trkpt>
      <trkpt lat="45.3842" lon="3.75268">
        <ele>658.09997558594</ele>
        <time>2012-09-14T16:31:51Z</time>
      </trkpt>
      <trkpt lat="45.38419" lon="3.75276">
        <ele>658</ele>
        <time>2012-09-14T16:31:54Z</time>
      </trkpt>
      <trkpt lat="45.38422" lon="3.75283">
        <ele>656.5</ele>
        <time>2012-09-14T16:31:56Z</time>
      </trkpt>
      <trkpt lat="45.38423" lon="3.75291">
        <ele>656.20001220703</ele>
        <time>2012-09-14T16:31:59Z</time>
      </trkpt>
      <trkpt lat="45.38424" lon="3.75298">
        <ele>654.20001220703</ele>
        <time>2012-09-14T16:32:02Z</time>
      </trkpt>
      <trkpt lat="45.38427" lon="3.75304">
        <ele>656.40002441406</ele>
        <time>2012-09-14T16:32:05Z</time>
      </trkpt>
      <trkpt lat="45.38428" lon="3.7531">
        <ele>656.59997558594</ele>
        <time>2012-09-14T16:32:08Z</time>
      </trkpt>
      <trkpt lat="45.38431" lon="3.75319">
        <ele>656.90002441406</ele>
        <time>2012-09-14T16:32:11Z</time>
      </trkpt>
      <trkpt lat="45.38433" lon="3.75327">
        <ele>657.40002441406</ele>
        <time>2012-09-14T16:32:14Z</time>
      </trkpt>
      <trkpt lat="45.38435" lon="3.75335">
        <ele>657.90002441406</ele>
        <time>2012-09-14T16:32:17Z</time>
      </trkpt>
      <trkpt lat="45.38437" lon="3.75343">
        <ele>658.5</ele>
        <time>2012-09-14T16:32:20Z</time>
      </trkpt>
      <trkpt lat="45.3844" lon="3.75351">
        <ele>658.5</ele>
        <time>2012-09-14T16:32:23Z</time>
      </trkpt>
      <trkpt lat="45.38442" lon="3.75358">
        <ele>658.70001220703</ele>
        <time>2012-09-14T16:32:26Z</time>
      </trkpt>
      <trkpt lat="45.38444" lon="3.75364">
        <ele>658.90002441406</ele>
        <time>2012-09-14T16:32:29Z</time>
      </trkpt>
      <trkpt lat="45.38446" lon="3.75372">
        <ele>659.20001220703</ele>
        <time>2012-09-14T16:32:32Z</time>
      </trkpt>
      <trkpt lat="45.38448" lon="3.7538">
        <ele>659</ele>
        <time>2012-09-14T16:32:35Z</time>
      </trkpt>
      <trkpt lat="45.3845" lon="3.75387">
        <ele>658.70001220703</ele>
        <time>2012-09-14T16:32:38Z</time>
      </trkpt>
      <trkpt lat="45.38453" lon="3.75395">
        <ele>658</ele>
        <time>2012-09-14T16:32:41Z</time>
      </trkpt>
      <trkpt lat="45.38454" lon="3.75402">
        <ele>657.5</ele>
        <time>2012-09-14T16:32:44Z</time>
      </trkpt>
      <trkpt lat="45.38456" lon="3.7541">
        <ele>657.90002441406</ele>
        <time>2012-09-14T16:32:47Z</time>
      </trkpt>
      <trkpt lat="45.38459" lon="3.75418">
        <ele>658.79998779297</ele>
        <time>2012-09-14T16:32:50Z</time>
      </trkpt>
      <trkpt lat="45.38461" lon="3.75425">
        <ele>657.29998779297</ele>
        <time>2012-09-14T16:32:53Z</time>
      </trkpt>
      <trkpt lat="45.38464" lon="3.75431">
        <ele>657.59997558594</ele>
        <time>2012-09-14T16:32:56Z</time>
      </trkpt>
      <trkpt lat="45.38467" lon="3.75439">
        <ele>658.5</ele>
        <time>2012-09-14T16:32:59Z</time>
      </trkpt>
      <trkpt lat="45.3847" lon="3.75447">
        <ele>658.09997558594</ele>
        <time>2012-09-14T16:33:02Z</time>
      </trkpt>
      <trkpt lat="45.38471" lon="3.75455">
        <ele>657.29998779297</ele>
        <time>2012-09-14T16:33:05Z</time>
      </trkpt>
      <trkpt lat="45.38474" lon="3.75463">
        <ele>657.70001220703</ele>
        <time>2012-09-14T16:33:08Z</time>
      </trkpt>
      <trkpt lat="45.38476" lon="3.75471">
        <ele>657.5</ele>
        <time>2012-09-14T16:33:11Z</time>
      </trkpt>
      <trkpt lat="45.38478" lon="3.75479">
        <ele>656.20001220703</ele>
        <time>2012-09-14T16:33:14Z</time>
      </trkpt>
      <trkpt lat="45.3848" lon="3.75485">
        <ele>657.20001220703</ele>
        <time>2012-09-14T16:33:16Z</time>
      </trkpt>
      <trkpt lat="45.38483" lon="3.75491">
        <ele>658.5</ele>
        <time>2012-09-14T16:33:19Z</time>
      </trkpt>
      <trkpt lat="45.38485" lon="3.75497">
        <ele>659.09997558594</ele>
        <time>2012-09-14T16:33:23Z</time>
      </trkpt>
      <trkpt lat="45.38487" lon="3.75504">
        <ele>658.79998779297</ele>
        <time>2012-09-14T16:33:28Z</time>
      </trkpt>
      <trkpt lat="45.38488" lon="3.7551">
        <ele>658.29998779297</ele>
        <time>2012-09-14T16:33:32Z</time>
      </trkpt>
      <trkpt lat="45.38489" lon="3.75517">
        <ele>657.90002441406</ele>
        <time>2012-09-14T16:33:36Z</time>
      </trkpt>
      <trkpt lat="45.3849" lon="3.75523">
        <ele>657.79998779297</ele>
        <time>2012-09-14T16:33:40Z</time>
      </trkpt>
      <trkpt lat="45.38492" lon="3.7553">
        <ele>658.20001220703</ele>
        <time>2012-09-14T16:33:45Z</time>
      </trkpt>
      <trkpt lat="45.38499" lon="3.75535">
        <ele>657.90002441406</ele>
        <time>2012-09-14T16:33:52Z</time>
      </trkpt>
      <trkpt lat="45.38506" lon="3.75536">
        <ele>657.29998779297</ele>
        <time>2012-09-14T16:33:56Z</time>
      </trkpt>
      <trkpt lat="45.38512" lon="3.75535">
        <ele>655.40002441406</ele>
        <time>2012-09-14T16:34:04Z</time>
      </trkpt>
      <trkpt lat="45.38518" lon="3.75533">
        <ele>655.20001220703</ele>
        <time>2012-09-14T16:34:08Z</time>
      </trkpt>
      <trkpt lat="45.38525" lon="3.75532">
        <ele>658.59997558594</ele>
        <time>2012-09-14T16:34:13Z</time>
      </trkpt>
      <trkpt lat="45.3853" lon="3.7553">
        <ele>660.79998779297</ele>
        <time>2012-09-14T16:34:16Z</time>
      </trkpt>
      <trkpt lat="45.3854" lon="3.75531">
        <ele>659.20001220703</ele>
        <time>2012-09-14T16:34:20Z</time>
      </trkpt>
      <trkpt lat="45.38544" lon="3.75531">
        <ele>658.59997558594</ele>
        <time>2012-09-14T16:34:22Z</time>
      </trkpt>
      <trkpt lat="45.38549" lon="3.7553">
        <ele>658.59997558594</ele>
        <time>2012-09-14T16:34:24Z</time>
      </trkpt>
      <trkpt lat="45.38561" lon="3.75526">
        <ele>657.29998779297</ele>
        <time>2012-09-14T16:34:30Z</time>
      </trkpt>
      <trkpt lat="45.38565" lon="3.75521">
        <ele>656.40002441406</ele>
        <time>2012-09-14T16:34:32Z</time>
      </trkpt>
      <trkpt lat="45.3857" lon="3.75517">
        <ele>655.5</ele>
        <time>2012-09-14T16:34:35Z</time>
      </trkpt>
      <trkpt lat="45.38574" lon="3.75515">
        <ele>655.392578125</ele>
        <time>2012-09-14T16:34:36Z</time>
      </trkpt>
      <trkpt lat="45.38583" lon="3.75512">
        <ele>655.79998779297</ele>
        <time>2012-09-14T16:34:39Z</time>
      </trkpt>
      <trkpt lat="45.38587" lon="3.75509">
        <ele>657</ele>
        <time>2012-09-14T16:34:40Z</time>
      </trkpt>
      <trkpt lat="45.38597" lon="3.7551">
        <ele>654.40002441406</ele>
        <time>2012-09-14T16:34:45Z</time>
      </trkpt>
      <trkpt lat="45.38604" lon="3.75513">
        <ele>653.40002441406</ele>
        <time>2012-09-14T16:34:50Z</time>
      </trkpt>
      <trkpt lat="45.38609" lon="3.75508">
        <ele>652.90002441406</ele>
        <time>2012-09-14T16:34:51Z</time>
      </trkpt>
      <trkpt lat="45.38609" lon="3.75501">
        <ele>650.40002441406</ele>
        <time>2012-09-14T16:34:55Z</time>
      </trkpt>
      <trkpt lat="45.38615" lon="3.755">
        <ele>654.20001220703</ele>
        <time>2012-09-14T16:34:57Z</time>
      </trkpt>
      <trkpt lat="45.38621" lon="3.75493">
        <ele>655.40002441406</ele>
        <time>2012-09-14T16:35:00Z</time>
      </trkpt>
      <trkpt lat="45.38623" lon="3.75486">
        <ele>656.09997558594</ele>
        <time>2012-09-14T16:35:03Z</time>
      </trkpt>
      <trkpt lat="45.38624" lon="3.7548">
        <ele>657.70001220703</ele>
        <time>2012-09-14T16:35:06Z</time>
      </trkpt>
      <trkpt lat="45.3863" lon="3.75467">
        <ele>656.70001220703</ele>
        <time>2012-09-14T16:35:13Z</time>
      </trkpt>
      <trkpt lat="45.38634" lon="3.75462">
        <ele>654.79998779297</ele>
        <time>2012-09-14T16:35:17Z</time>
      </trkpt>
      <trkpt lat="45.38639" lon="3.75455">
        <ele>655.20001220703</ele>
        <time>2012-09-14T16:35:21Z</time>
      </trkpt>
      <trkpt lat="45.38646" lon="3.75448">
        <ele>655.29998779297</ele>
        <time>2012-09-14T16:35:24Z</time>
      </trkpt>
      <trkpt lat="45.3865" lon="3.75442">
        <ele>657.09997558594</ele>
        <time>2012-09-14T16:35:26Z</time>
      </trkpt>
      <trkpt lat="45.38653" lon="3.75436">
        <ele>657.29998779297</ele>
        <time>2012-09-14T16:35:28Z</time>
      </trkpt>
      <trkpt lat="45.38655" lon="3.75429">
        <ele>657.20001220703</ele>
        <time>2012-09-14T16:35:31Z</time>
      </trkpt>
      <trkpt lat="45.38659" lon="3.75422">
        <ele>657.29998779297</ele>
        <time>2012-09-14T16:35:34Z</time>
      </trkpt>
      <trkpt lat="45.38663" lon="3.75416">
        <ele>659.09997558594</ele>
        <time>2012-09-14T16:35:37Z</time>
      </trkpt>
      <trkpt lat="45.38671" lon="3.754">
        <ele>661</ele>
        <time>2012-09-14T16:35:43Z</time>
      </trkpt>
      <trkpt lat="45.38676" lon="3.75395">
        <ele>661.40002441406</ele>
        <time>2012-09-14T16:35:46Z</time>
      </trkpt>
      <trkpt lat="45.3868" lon="3.75388">
        <ele>661.70001220703</ele>
        <time>2012-09-14T16:35:49Z</time>
      </trkpt>
      <trkpt lat="45.38683" lon="3.75381">
        <ele>661.59997558594</ele>
        <time>2012-09-14T16:35:53Z</time>
      </trkpt>
      <trkpt lat="45.38687" lon="3.75375">
        <ele>662.59997558594</ele>
        <time>2012-09-14T16:35:55Z</time>
      </trkpt>
      <trkpt lat="45.3869" lon="3.7537">
        <ele>661.40002441406</ele>
        <time>2012-09-14T16:35:58Z</time>
      </trkpt>
      <trkpt lat="45.38695" lon="3.75364">
        <ele>662.5</ele>
        <time>2012-09-14T16:36:02Z</time>
      </trkpt>
      <trkpt lat="45.38699" lon="3.75357">
        <ele>661.29998779297</ele>
        <time>2012-09-14T16:36:05Z</time>
      </trkpt>
      <trkpt lat="45.38704" lon="3.75351">
        <ele>660.79998779297</ele>
        <time>2012-09-14T16:36:09Z</time>
      </trkpt>
      <trkpt lat="45.38711" lon="3.75344">
        <ele>662.79998779297</ele>
        <time>2012-09-14T16:36:13Z</time>
      </trkpt>
      <trkpt lat="45.38714" lon="3.75338">
        <ele>659.40002441406</ele>
        <time>2012-09-14T16:36:18Z</time>
      </trkpt>
      <trkpt lat="45.38719" lon="3.75335">
        <ele>659.59997558594</ele>
        <time>2012-09-14T16:36:21Z</time>
      </trkpt>
      <trkpt lat="45.38731" lon="3.75328">
        <ele>658.79998779297</ele>
        <time>2012-09-14T16:36:38Z</time>
      </trkpt>
      <trkpt lat="45.38737" lon="3.75324">
        <ele>658.79998779297</ele>
        <time>2012-09-14T16:36:43Z</time>
      </trkpt>
      <trkpt lat="45.38741" lon="3.75321">
        <ele>656.29998779297</ele>
        <time>2012-09-14T16:36:47Z</time>
      </trkpt>
      <trkpt lat="45.38754" lon="3.75321">
        <ele>655.79998779297</ele>
        <time>2012-09-14T16:37:00Z</time>
      </trkpt>
      <trkpt lat="45.38759" lon="3.7532">
        <ele>654</ele>
        <time>2012-09-14T16:37:02Z</time>
      </trkpt>
      <trkpt lat="45.38764" lon="3.75322">
        <ele>654.40002441406</ele>
        <time>2012-09-14T16:37:05Z</time>
      </trkpt>
      <trkpt lat="45.38777" lon="3.75326">
        <ele>656.29998779297</ele>
        <time>2012-09-14T16:37:18Z</time>
      </trkpt>
      <trkpt lat="45.38779" lon="3.75321">
        <ele>655.21264648438</ele>
        <time>2012-09-14T16:37:19Z</time>
      </trkpt>
      <trkpt lat="45.38785" lon="3.75323">
        <ele>656.40002441406</ele>
        <time>2012-09-14T16:37:23Z</time>
      </trkpt>
      <trkpt lat="45.38789" lon="3.75329">
        <ele>653.09997558594</ele>
        <time>2012-09-14T16:37:25Z</time>
      </trkpt>
      <trkpt lat="45.38801" lon="3.75328">
        <ele>651.70001220703</ele>
        <time>2012-09-14T16:37:32Z</time>
      </trkpt>
      <trkpt lat="45.38805" lon="3.75325">
        <ele>650.79998779297</ele>
        <time>2012-09-14T16:37:34Z</time>
      </trkpt>
      <trkpt lat="45.3881" lon="3.75329">
        <ele>650.59997558594</ele>
        <time>2012-09-14T16:37:38Z</time>
      </trkpt>
      <trkpt lat="45.38814" lon="3.75333">
        <ele>650.20001220703</ele>
        <time>2012-09-14T16:37:40Z</time>
      </trkpt>
      <trkpt lat="45.38819" lon="3.75334">
        <ele>649.59997558594</ele>
        <time>2012-09-14T16:37:43Z</time>
      </trkpt>
      <trkpt lat="45.38826" lon="3.7534">
        <ele>651.40002441406</ele>
        <time>2012-09-14T16:37:47Z</time>
      </trkpt>
      <trkpt lat="45.3883" lon="3.75347">
        <ele>653.59997558594</ele>
        <time>2012-09-14T16:37:50Z</time>
      </trkpt>
      <trkpt lat="45.38835" lon="3.75346">
        <ele>652.29998779297</ele>
        <time>2012-09-14T16:37:53Z</time>
      </trkpt>
      <trkpt lat="45.38855" lon="3.75347">
        <ele>653.59997558594</ele>
        <time>2012-09-14T16:38:04Z</time>
      </trkpt>
      <trkpt lat="45.38861" lon="3.7535">
        <ele>656.09997558594</ele>
        <time>2012-09-14T16:38:08Z</time>
      </trkpt>
      <trkpt lat="45.38866" lon="3.75352">
        <ele>656.09997558594</ele>
        <time>2012-09-14T16:38:11Z</time>
      </trkpt>
      <trkpt lat="45.38872" lon="3.75353">
        <ele>656.09997558594</ele>
        <time>2012-09-14T16:38:14Z</time>
      </trkpt>
      <trkpt lat="45.38878" lon="3.75355">
        <ele>656.09997558594</ele>
        <time>2012-09-14T16:38:17Z</time>
      </trkpt>
      <trkpt lat="45.38893" lon="3.75358">
        <ele>658.09997558594</ele>
        <time>2012-09-14T16:38:24Z</time>
      </trkpt>
      <trkpt lat="45.38899" lon="3.75359">
        <ele>657</ele>
        <time>2012-09-14T16:38:27Z</time>
      </trkpt>
      <trkpt lat="45.38904" lon="3.75359">
        <ele>657.5</ele>
        <time>2012-09-14T16:38:30Z</time>
      </trkpt>
      <trkpt lat="45.3891" lon="3.75361">
        <ele>656.70001220703</ele>
        <time>2012-09-14T16:38:33Z</time>
      </trkpt>
      <trkpt lat="45.38916" lon="3.75362">
        <ele>657.20001220703</ele>
        <time>2012-09-14T16:38:36Z</time>
      </trkpt>
      <trkpt lat="45.38924" lon="3.75362">
        <ele>656.70001220703</ele>
        <time>2012-09-14T16:38:40Z</time>
      </trkpt>
      <trkpt lat="45.38933" lon="3.75365">
        <ele>655.20001220703</ele>
        <time>2012-09-14T16:38:45Z</time>
      </trkpt>
      <trkpt lat="45.38937" lon="3.75361">
        <ele>654.40002441406</ele>
        <time>2012-09-14T16:38:47Z</time>
      </trkpt>
      <trkpt lat="45.38941" lon="3.75358">
        <ele>651.79998779297</ele>
        <time>2012-09-14T16:38:49Z</time>
      </trkpt>
      <trkpt lat="45.38946" lon="3.75353">
        <ele>651.70001220703</ele>
        <time>2012-09-14T16:38:52Z</time>
      </trkpt>
      <trkpt lat="45.38951" lon="3.7535">
        <ele>652.79998779297</ele>
        <time>2012-09-14T16:38:55Z</time>
      </trkpt>
      <trkpt lat="45.38957" lon="3.75345">
        <ele>653.70001220703</ele>
        <time>2012-09-14T16:38:58Z</time>
      </trkpt>
      <trkpt lat="45.38962" lon="3.75341">
        <ele>652.70001220703</ele>
        <time>2012-09-14T16:39:01Z</time>
      </trkpt>
      <trkpt lat="45.38966" lon="3.75337">
        <ele>652.70001220703</ele>
        <time>2012-09-14T16:39:04Z</time>
      </trkpt>
      <trkpt lat="45.38971" lon="3.75332">
        <ele>651.5</ele>
        <time>2012-09-14T16:39:07Z</time>
      </trkpt>
      <trkpt lat="45.38979" lon="3.75328">
        <ele>651.20001220703</ele>
        <time>2012-09-14T16:39:13Z</time>
      </trkpt>
      <trkpt lat="45.38983" lon="3.75324">
        <ele>648.29998779297</ele>
        <time>2012-09-14T16:39:20Z</time>
      </trkpt>
      <trkpt lat="45.38989" lon="3.75323">
        <ele>650</ele>
        <time>2012-09-14T16:39:22Z</time>
      </trkpt>
      <trkpt lat="45.38993" lon="3.75316">
        <ele>646.09997558594</ele>
        <time>2012-09-14T16:39:29Z</time>
      </trkpt>
      <trkpt lat="45.38997" lon="3.75313">
        <ele>644.90002441406</ele>
        <time>2012-09-14T16:39:33Z</time>
      </trkpt>
      <trkpt lat="45.39" lon="3.75307">
        <ele>645.5</ele>
        <time>2012-09-14T16:39:37Z</time>
      </trkpt>
      <trkpt lat="45.39004" lon="3.75303">
        <ele>645.40002441406</ele>
        <time>2012-09-14T16:39:41Z</time>
      </trkpt>
      <trkpt lat="45.39007" lon="3.75298">
        <ele>645.09997558594</ele>
        <time>2012-09-14T16:39:46Z</time>
      </trkpt>
      <trkpt lat="45.39013" lon="3.75297">
        <ele>643.79998779297</ele>
        <time>2012-09-14T16:39:51Z</time>
      </trkpt>
      <trkpt lat="45.39017" lon="3.75292">
        <ele>643.90002441406</ele>
        <time>2012-09-14T16:39:56Z</time>
      </trkpt>
      <trkpt lat="45.39022" lon="3.75286">
        <ele>642.59997558594</ele>
        <time>2012-09-14T16:40:00Z</time>
      </trkpt>
      <trkpt lat="45.39026" lon="3.75283">
        <ele>642.70001220703</ele>
        <time>2012-09-14T16:40:05Z</time>
      </trkpt>
      <trkpt lat="45.3903" lon="3.75276">
        <ele>643.79998779297</ele>
        <time>2012-09-14T16:40:09Z</time>
      </trkpt>
      <trkpt lat="45.39035" lon="3.75271">
        <ele>644.20001220703</ele>
        <time>2012-09-14T16:40:12Z</time>
      </trkpt>
      <trkpt lat="45.39039" lon="3.75268">
        <ele>645.59997558594</ele>
        <time>2012-09-14T16:40:14Z</time>
      </trkpt>
      <trkpt lat="45.39044" lon="3.75262">
        <ele>647</ele>
        <time>2012-09-14T16:40:17Z</time>
      </trkpt>
      <trkpt lat="45.39049" lon="3.75257">
        <ele>646.09997558594</ele>
        <time>2012-09-14T16:40:20Z</time>
      </trkpt>
      <trkpt lat="45.39053" lon="3.75254">
        <ele>646.59997558594</ele>
        <time>2012-09-14T16:40:22Z</time>
      </trkpt>
      <trkpt lat="45.39057" lon="3.75249">
        <ele>646</ele>
        <time>2012-09-14T16:40:24Z</time>
      </trkpt>
      <trkpt lat="45.3906" lon="3.75244">
        <ele>644.59997558594</ele>
        <time>2012-09-14T16:40:26Z</time>
      </trkpt>
      <trkpt lat="45.39063" lon="3.75238">
        <ele>644.29998779297</ele>
        <time>2012-09-14T16:40:29Z</time>
      </trkpt>
      <trkpt lat="45.39069" lon="3.75221">
        <ele>641.79998779297</ele>
        <time>2012-09-14T16:40:35Z</time>
      </trkpt>
      <trkpt lat="45.39071" lon="3.75214">
        <ele>643</ele>
        <time>2012-09-14T16:40:38Z</time>
      </trkpt>
      <trkpt lat="45.39077" lon="3.75203">
        <ele>644.09997558594</ele>
        <time>2012-09-14T16:40:42Z</time>
      </trkpt>
      <trkpt lat="45.39079" lon="3.75198">
        <ele>644.40002441406</ele>
        <time>2012-09-14T16:40:44Z</time>
      </trkpt>
      <trkpt lat="45.39082" lon="3.75192">
        <ele>642.70001220703</ele>
        <time>2012-09-14T16:40:46Z</time>
      </trkpt>
      <trkpt lat="45.39085" lon="3.75186">
        <ele>642</ele>
        <time>2012-09-14T16:40:48Z</time>
      </trkpt>
      <trkpt lat="45.39088" lon="3.75179">
        <ele>641.29998779297</ele>
        <time>2012-09-14T16:40:51Z</time>
      </trkpt>
      <trkpt lat="45.3909" lon="3.7517">
        <ele>641.70001220703</ele>
        <time>2012-09-14T16:40:54Z</time>
      </trkpt>
      <trkpt lat="45.39093" lon="3.75163">
        <ele>642.70001220703</ele>
        <time>2012-09-14T16:40:58Z</time>
      </trkpt>
      <trkpt lat="45.39096" lon="3.75155">
        <ele>642.59997558594</ele>
        <time>2012-09-14T16:41:00Z</time>
      </trkpt>
      <trkpt lat="45.39101" lon="3.75149">
        <ele>639.70001220703</ele>
        <time>2012-09-14T16:41:03Z</time>
      </trkpt>
      <trkpt lat="45.39105" lon="3.75142">
        <ele>638.09997558594</ele>
        <time>2012-09-14T16:41:06Z</time>
      </trkpt>
      <trkpt lat="45.39108" lon="3.75135">
        <ele>638.59997558594</ele>
        <time>2012-09-14T16:41:09Z</time>
      </trkpt>
      <trkpt lat="45.3911" lon="3.75128">
        <ele>639.70001220703</ele>
        <time>2012-09-14T16:41:10Z</time>
      </trkpt>
      <trkpt lat="45.39112" lon="3.7512">
        <ele>639.59997558594</ele>
        <time>2012-09-14T16:41:13Z</time>
      </trkpt>
      <trkpt lat="45.39114" lon="3.75114">
        <ele>640.20001220703</ele>
        <time>2012-09-14T16:41:15Z</time>
      </trkpt>
      <trkpt lat="45.39116" lon="3.75106">
        <ele>640.5</ele>
        <time>2012-09-14T16:41:18Z</time>
      </trkpt>
      <trkpt lat="45.39118" lon="3.751">
        <ele>640.79998779297</ele>
        <time>2012-09-14T16:41:20Z</time>
      </trkpt>
      <trkpt lat="45.39121" lon="3.75092">
        <ele>641</ele>
        <time>2012-09-14T16:41:23Z</time>
      </trkpt>
      <trkpt lat="45.39123" lon="3.75084">
        <ele>642.40002441406</ele>
        <time>2012-09-14T16:41:26Z</time>
      </trkpt>
      <trkpt lat="45.39126" lon="3.75075">
        <ele>643.79998779297</ele>
        <time>2012-09-14T16:41:29Z</time>
      </trkpt>
      <trkpt lat="45.39129" lon="3.75066">
        <ele>640.40002441406</ele>
        <time>2012-09-14T16:41:33Z</time>
      </trkpt>
      <trkpt lat="45.39132" lon="3.75059">
        <ele>639.29998779297</ele>
        <time>2012-09-14T16:41:36Z</time>
      </trkpt>
      <trkpt lat="45.39136" lon="3.75051">
        <ele>638.09997558594</ele>
        <time>2012-09-14T16:41:40Z</time>
      </trkpt>
      <trkpt lat="45.39139" lon="3.75044">
        <ele>638.70001220703</ele>
        <time>2012-09-14T16:41:43Z</time>
      </trkpt>
      <trkpt lat="45.39141" lon="3.75038">
        <ele>638.5</ele>
        <time>2012-09-14T16:41:45Z</time>
      </trkpt>
      <trkpt lat="45.39143" lon="3.75031">
        <ele>638.90002441406</ele>
        <time>2012-09-14T16:41:47Z</time>
      </trkpt>
      <trkpt lat="45.39151" lon="3.75013">
        <ele>636.20001220703</ele>
        <time>2012-09-14T16:41:54Z</time>
      </trkpt>
      <trkpt lat="45.39153" lon="3.75006">
        <ele>636.90002441406</ele>
        <time>2012-09-14T16:41:56Z</time>
      </trkpt>
      <trkpt lat="45.39156" lon="3.75001">
        <ele>636.09997558594</ele>
        <time>2012-09-14T16:41:58Z</time>
      </trkpt>
      <trkpt lat="45.39161" lon="3.74993">
        <ele>634.5</ele>
        <time>2012-09-14T16:42:01Z</time>
      </trkpt>
      <trkpt lat="45.39163" lon="3.74984">
        <ele>636.29998779297</ele>
        <time>2012-09-14T16:42:04Z</time>
      </trkpt>
      <trkpt lat="45.39164" lon="3.74977">
        <ele>636.90002441406</ele>
        <time>2012-09-14T16:42:07Z</time>
      </trkpt>
      <trkpt lat="45.39167" lon="3.74971">
        <ele>636.79998779297</ele>
        <time>2012-09-14T16:42:09Z</time>
      </trkpt>
      <trkpt lat="45.39162" lon="3.74967">
        <ele>631.29998779297</ele>
        <time>2012-09-14T16:42:15Z</time>
      </trkpt>
      <trkpt lat="45.3917" lon="3.74956">
        <ele>632</ele>
        <time>2012-09-14T16:42:25Z</time>
      </trkpt>
      <trkpt lat="45.39177" lon="3.74946">
        <ele>635.59997558594</ele>
        <time>2012-09-14T16:42:30Z</time>
      </trkpt>
      <trkpt lat="45.39181" lon="3.74941">
        <ele>637.09997558594</ele>
        <time>2012-09-14T16:42:34Z</time>
      </trkpt>
      <trkpt lat="45.39186" lon="3.74935">
        <ele>639.59997558594</ele>
        <time>2012-09-14T16:42:38Z</time>
      </trkpt>
      <trkpt lat="45.3919" lon="3.74933">
        <ele>640.29998779297</ele>
        <time>2012-09-14T16:42:42Z</time>
      </trkpt>
      <trkpt lat="45.39195" lon="3.74929">
        <ele>639.20001220703</ele>
        <time>2012-09-14T16:42:45Z</time>
      </trkpt>
      <trkpt lat="45.392" lon="3.74924">
        <ele>635.70001220703</ele>
        <time>2012-09-14T16:42:53Z</time>
      </trkpt>
      <trkpt lat="45.3921" lon="3.74926">
        <ele>637.09997558594</ele>
        <time>2012-09-14T16:43:03Z</time>
      </trkpt>
      <trkpt lat="45.39213" lon="3.74932">
        <ele>634.40002441406</ele>
        <time>2012-09-14T16:43:08Z</time>
      </trkpt>
      <trkpt lat="45.39215" lon="3.74939">
        <ele>632.79998779297</ele>
        <time>2012-09-14T16:43:11Z</time>
      </trkpt>
      <trkpt lat="45.39215" lon="3.74946">
        <ele>632.90002441406</ele>
        <time>2012-09-14T16:43:15Z</time>
      </trkpt>
      <trkpt lat="45.39216" lon="3.74955">
        <ele>633</ele>
        <time>2012-09-14T16:43:17Z</time>
      </trkpt>
      <trkpt lat="45.39216" lon="3.74964">
        <ele>632.59997558594</ele>
        <time>2012-09-14T16:43:20Z</time>
      </trkpt>
      <trkpt lat="45.39215" lon="3.7498">
        <ele>633.5</ele>
        <time>2012-09-14T16:43:25Z</time>
      </trkpt>
      <trkpt lat="45.39214" lon="3.74988">
        <ele>634.70001220703</ele>
        <time>2012-09-14T16:43:29Z</time>
      </trkpt>
      <trkpt lat="45.39213" lon="3.74995">
        <ele>635</ele>
        <time>2012-09-14T16:43:30Z</time>
      </trkpt>
      <trkpt lat="45.39213" lon="3.75002">
        <ele>635.20001220703</ele>
        <time>2012-09-14T16:43:32Z</time>
      </trkpt>
      <trkpt lat="45.39212" lon="3.75009">
        <ele>635.70001220703</ele>
        <time>2012-09-14T16:43:34Z</time>
      </trkpt>
      <trkpt lat="45.39212" lon="3.75018">
        <ele>636.20001220703</ele>
        <time>2012-09-14T16:43:37Z</time>
      </trkpt>
      <trkpt lat="45.39211" lon="3.75027">
        <ele>636.70001220703</ele>
        <time>2012-09-14T16:43:41Z</time>
      </trkpt>
      <trkpt lat="45.39212" lon="3.75036">
        <ele>636.40002441406</ele>
        <time>2012-09-14T16:43:43Z</time>
      </trkpt>
      <trkpt lat="45.39211" lon="3.75045">
        <ele>636.40002441406</ele>
        <time>2012-09-14T16:43:46Z</time>
      </trkpt>
      <trkpt lat="45.39211" lon="3.75054">
        <ele>636.70001220703</ele>
        <time>2012-09-14T16:43:49Z</time>
      </trkpt>
      <trkpt lat="45.39211" lon="3.75061">
        <ele>637.29998779297</ele>
        <time>2012-09-14T16:43:51Z</time>
      </trkpt>
      <trkpt lat="45.39211" lon="3.75069">
        <ele>638.40002441406</ele>
        <time>2012-09-14T16:43:53Z</time>
      </trkpt>
      <trkpt lat="45.39211" lon="3.75077">
        <ele>638.59997558594</ele>
        <time>2012-09-14T16:43:56Z</time>
      </trkpt>
      <trkpt lat="45.39211" lon="3.75086">
        <ele>638.29998779297</ele>
        <time>2012-09-14T16:43:59Z</time>
      </trkpt>
      <trkpt lat="45.39211" lon="3.75094">
        <ele>639</ele>
        <time>2012-09-14T16:44:02Z</time>
      </trkpt>
      <trkpt lat="45.39211" lon="3.75102">
        <ele>640</ele>
        <time>2012-09-14T16:44:04Z</time>
      </trkpt>
      <trkpt lat="45.3921" lon="3.7511">
        <ele>641</ele>
        <time>2012-09-14T16:44:07Z</time>
      </trkpt>
      <trkpt lat="45.3921" lon="3.75118">
        <ele>641.5</ele>
        <time>2012-09-14T16:44:10Z</time>
      </trkpt>
      <trkpt lat="45.3921" lon="3.75125">
        <ele>640.79998779297</ele>
        <time>2012-09-14T16:44:13Z</time>
      </trkpt>
      <trkpt lat="45.3921" lon="3.75133">
        <ele>640.59997558594</ele>
        <time>2012-09-14T16:44:16Z</time>
      </trkpt>
      <trkpt lat="45.3921" lon="3.75141">
        <ele>640.40002441406</ele>
        <time>2012-09-14T16:44:19Z</time>
      </trkpt>
      <trkpt lat="45.3921" lon="3.7515">
        <ele>640.40002441406</ele>
        <time>2012-09-14T16:44:23Z</time>
      </trkpt>
      <trkpt lat="45.39211" lon="3.75158">
        <ele>640</ele>
        <time>2012-09-14T16:44:26Z</time>
      </trkpt>
      <trkpt lat="45.39212" lon="3.75166">
        <ele>640.09997558594</ele>
        <time>2012-09-14T16:44:29Z</time>
      </trkpt>
      <trkpt lat="45.39213" lon="3.75173">
        <ele>640.79998779297</ele>
        <time>2012-09-14T16:44:32Z</time>
      </trkpt>
      <trkpt lat="45.39215" lon="3.75181">
        <ele>639.79998779297</ele>
        <time>2012-09-14T16:44:38Z</time>
      </trkpt>
      <trkpt lat="45.39217" lon="3.75187">
        <ele>639.59997558594</ele>
        <time>2012-09-14T16:44:44Z</time>
      </trkpt>
      <trkpt lat="45.3922" lon="3.75193">
        <ele>637.20001220703</ele>
        <time>2012-09-14T16:44:51Z</time>
      </trkpt>
      <trkpt lat="45.3922" lon="3.75201">
        <ele>640.90002441406</ele>
        <time>2012-09-14T16:44:53Z</time>
      </trkpt>
      <trkpt lat="45.39222" lon="3.75208">
        <ele>642.09997558594</ele>
        <time>2012-09-14T16:44:58Z</time>
      </trkpt>
      <trkpt lat="45.39224" lon="3.75214">
        <ele>642.79998779297</ele>
        <time>2012-09-14T16:45:01Z</time>
      </trkpt>
      <trkpt lat="45.39227" lon="3.75219">
        <ele>643.20001220703</ele>
        <time>2012-09-14T16:45:09Z</time>
      </trkpt>
      <trkpt lat="45.39228" lon="3.75226">
        <ele>643.20001220703</ele>
        <time>2012-09-14T16:45:13Z</time>
      </trkpt>
      <trkpt lat="45.39232" lon="3.75237">
        <ele>641.20001220703</ele>
        <time>2012-09-14T16:45:22Z</time>
      </trkpt>
      <trkpt lat="45.39233" lon="3.75244">
        <ele>641.70001220703</ele>
        <time>2012-09-14T16:45:26Z</time>
      </trkpt>
      <trkpt lat="45.39232" lon="3.75252">
        <ele>642.09997558594</ele>
        <time>2012-09-14T16:45:29Z</time>
      </trkpt>
      <trkpt lat="45.39233" lon="3.7526">
        <ele>641</ele>
        <time>2012-09-14T16:45:34Z</time>
      </trkpt>
      <trkpt lat="45.39234" lon="3.75266">
        <ele>640.40002441406</ele>
        <time>2012-09-14T16:45:38Z</time>
      </trkpt>
      <trkpt lat="45.39234" lon="3.75278">
        <ele>642.5</ele>
        <time>2012-09-14T16:45:42Z</time>
      </trkpt>
      <trkpt lat="45.39237" lon="3.75285">
        <ele>641.79998779297</ele>
        <time>2012-09-14T16:45:47Z</time>
      </trkpt>
      <trkpt lat="45.39239" lon="3.75292">
        <ele>640.90002441406</ele>
        <time>2012-09-14T16:45:51Z</time>
      </trkpt>
      <trkpt lat="45.3924" lon="3.75299">
        <ele>640.20001220703</ele>
        <time>2012-09-14T16:45:55Z</time>
      </trkpt>
      <trkpt lat="45.3924" lon="3.75308">
        <ele>639.09997558594</ele>
        <time>2012-09-14T16:46:01Z</time>
      </trkpt>
      <trkpt lat="45.39241" lon="3.75315">
        <ele>640</ele>
        <time>2012-09-14T16:46:06Z</time>
      </trkpt>
      <trkpt lat="45.39242" lon="3.75321">
        <ele>641.09997558594</ele>
        <time>2012-09-14T16:46:09Z</time>
      </trkpt>
      <trkpt lat="45.39242" lon="3.75331">
        <ele>641.79998779297</ele>
        <time>2012-09-14T16:46:13Z</time>
      </trkpt>
      <trkpt lat="45.39242" lon="3.75339">
        <ele>642.70001220703</ele>
        <time>2012-09-14T16:46:15Z</time>
      </trkpt>
      <trkpt lat="45.39241" lon="3.75348">
        <ele>643.20001220703</ele>
        <time>2012-09-14T16:46:18Z</time>
      </trkpt>
      <trkpt lat="45.39241" lon="3.75355">
        <ele>641.29998779297</ele>
        <time>2012-09-14T16:46:21Z</time>
      </trkpt>
      <trkpt lat="45.39241" lon="3.75368">
        <ele>641.70001220703</ele>
        <time>2012-09-14T16:46:27Z</time>
      </trkpt>
      <trkpt lat="45.39242" lon="3.75375">
        <ele>643</ele>
        <time>2012-09-14T16:46:28Z</time>
      </trkpt>
      <trkpt lat="45.39242" lon="3.75382">
        <ele>643.20001220703</ele>
        <time>2012-09-14T16:46:31Z</time>
      </trkpt>
      <trkpt lat="45.39242" lon="3.75389">
        <ele>643.09997558594</ele>
        <time>2012-09-14T16:46:34Z</time>
      </trkpt>
      <trkpt lat="45.39241" lon="3.75397">
        <ele>643.5</ele>
        <time>2012-09-14T16:46:37Z</time>
      </trkpt>
      <trkpt lat="45.39241" lon="3.75406">
        <ele>643.79998779297</ele>
        <time>2012-09-14T16:46:40Z</time>
      </trkpt>
      <trkpt lat="45.39241" lon="3.75414">
        <ele>644</ele>
        <time>2012-09-14T16:46:43Z</time>
      </trkpt>
      <trkpt lat="45.39242" lon="3.75422">
        <ele>644.40002441406</ele>
        <time>2012-09-14T16:46:46Z</time>
      </trkpt>
      <trkpt lat="45.39242" lon="3.75431">
        <ele>644.59997558594</ele>
        <time>2012-09-14T16:46:49Z</time>
      </trkpt>
      <trkpt lat="45.39241" lon="3.75439">
        <ele>645</ele>
        <time>2012-09-14T16:46:52Z</time>
      </trkpt>
      <trkpt lat="45.39241" lon="3.75447">
        <ele>645.5</ele>
        <time>2012-09-14T16:46:55Z</time>
      </trkpt>
      <trkpt lat="45.3924" lon="3.75456">
        <ele>644.5</ele>
        <time>2012-09-14T16:46:59Z</time>
      </trkpt>
      <trkpt lat="45.3924" lon="3.75463">
        <ele>645.09997558594</ele>
        <time>2012-09-14T16:47:00Z</time>
      </trkpt>
      <trkpt lat="45.3924" lon="3.75483">
        <ele>645.90002441406</ele>
        <time>2012-09-14T16:47:07Z</time>
      </trkpt>
      <trkpt lat="45.39239" lon="3.7549">
        <ele>646.59997558594</ele>
        <time>2012-09-14T16:47:10Z</time>
      </trkpt>
      <trkpt lat="45.39239" lon="3.75503">
        <ele>645.59997558594</ele>
        <time>2012-09-14T16:47:15Z</time>
      </trkpt>
      <trkpt lat="45.39236" lon="3.75512">
        <ele>646.5</ele>
        <time>2012-09-14T16:47:18Z</time>
      </trkpt>
      <trkpt lat="45.39236" lon="3.7552">
        <ele>647.20001220703</ele>
        <time>2012-09-14T16:47:22Z</time>
      </trkpt>
      <trkpt lat="45.39236" lon="3.75526">
        <ele>646.09997558594</ele>
        <time>2012-09-14T16:47:24Z</time>
      </trkpt>
      <trkpt lat="45.39235" lon="3.75536">
        <ele>645.09997558594</ele>
        <time>2012-09-14T16:47:29Z</time>
      </trkpt>
      <trkpt lat="45.39232" lon="3.75544">
        <ele>644.40002441406</ele>
        <time>2012-09-14T16:47:32Z</time>
      </trkpt>
      <trkpt lat="45.39232" lon="3.75551">
        <ele>645.79998779297</ele>
        <time>2012-09-14T16:47:35Z</time>
      </trkpt>
      <trkpt lat="45.39232" lon="3.7556">
        <ele>646.79998779297</ele>
        <time>2012-09-14T16:47:38Z</time>
      </trkpt>
      <trkpt lat="45.39232" lon="3.75567">
        <ele>644.29998779297</ele>
        <time>2012-09-14T16:47:42Z</time>
      </trkpt>
      <trkpt lat="45.39233" lon="3.75575">
        <ele>643.59997558594</ele>
        <time>2012-09-14T16:47:47Z</time>
      </trkpt>
      <trkpt lat="45.39231" lon="3.7558">
        <ele>644.29998779297</ele>
        <time>2012-09-14T16:47:49Z</time>
      </trkpt>
      <trkpt lat="45.39229" lon="3.75587">
        <ele>644.5</ele>
        <time>2012-09-14T16:47:54Z</time>
      </trkpt>
      <trkpt lat="45.3923" lon="3.75594">
        <ele>643.5</ele>
        <time>2012-09-14T16:48:03Z</time>
      </trkpt>
      <trkpt lat="45.39228" lon="3.75605">
        <ele>643.79998779297</ele>
        <time>2012-09-14T16:48:08Z</time>
      </trkpt>
      <trkpt lat="45.39226" lon="3.75612">
        <ele>644.09997558594</ele>
        <time>2012-09-14T16:48:11Z</time>
      </trkpt>
      <trkpt lat="45.39225" lon="3.75618">
        <ele>644.90002441406</ele>
        <time>2012-09-14T16:48:15Z</time>
      </trkpt>
      <trkpt lat="45.39224" lon="3.75626">
        <ele>643.5</ele>
        <time>2012-09-14T16:48:20Z</time>
      </trkpt>
      <trkpt lat="45.39222" lon="3.75633">
        <ele>642.70001220703</ele>
        <time>2012-09-14T16:48:24Z</time>
      </trkpt>
      <trkpt lat="45.39221" lon="3.7564">
        <ele>644.59997558594</ele>
        <time>2012-09-14T16:48:29Z</time>
      </trkpt>
      <trkpt lat="45.39217" lon="3.75647">
        <ele>646.5</ele>
        <time>2012-09-14T16:48:32Z</time>
      </trkpt>
      <trkpt lat="45.39216" lon="3.75653">
        <ele>646</ele>
        <time>2012-09-14T16:48:37Z</time>
      </trkpt>
      <trkpt lat="45.39215" lon="3.75661">
        <ele>647.59997558594</ele>
        <time>2012-09-14T16:48:41Z</time>
      </trkpt>
      <trkpt lat="45.39215" lon="3.7567">
        <ele>647.40002441406</ele>
        <time>2012-09-14T16:48:47Z</time>
      </trkpt>
      <trkpt lat="45.39213" lon="3.75679">
        <ele>646.40002441406</ele>
        <time>2012-09-14T16:48:53Z</time>
      </trkpt>
      <trkpt lat="45.39214" lon="3.75686">
        <ele>645.5</ele>
        <time>2012-09-14T16:48:58Z</time>
      </trkpt>
      <trkpt lat="45.39212" lon="3.75694">
        <ele>645.5</ele>
        <time>2012-09-14T16:49:02Z</time>
      </trkpt>
      <trkpt lat="45.3921" lon="3.757">
        <ele>645.5</ele>
        <time>2012-09-14T16:49:07Z</time>
      </trkpt>
      <trkpt lat="45.3921" lon="3.75707">
        <ele>644.59997558594</ele>
        <time>2012-09-14T16:49:11Z</time>
      </trkpt>
      <trkpt lat="45.39208" lon="3.75715">
        <ele>645.40002441406</ele>
        <time>2012-09-14T16:49:18Z</time>
      </trkpt>
      <trkpt lat="45.39211" lon="3.75721">
        <ele>643.5</ele>
        <time>2012-09-14T16:49:22Z</time>
      </trkpt>
      <trkpt lat="45.3921" lon="3.75728">
        <ele>643.40002441406</ele>
        <time>2012-09-14T16:49:29Z</time>
      </trkpt>
      <trkpt lat="45.39212" lon="3.75734">
        <ele>643.29998779297</ele>
        <time>2012-09-14T16:49:35Z</time>
      </trkpt>
      <trkpt lat="45.39215" lon="3.7574">
        <ele>643.90002441406</ele>
        <time>2012-09-14T16:49:40Z</time>
      </trkpt>
      <trkpt lat="45.39216" lon="3.75747">
        <ele>644.20001220703</ele>
        <time>2012-09-14T16:49:43Z</time>
      </trkpt>
      <trkpt lat="45.39214" lon="3.75757">
        <ele>646.59997558594</ele>
        <time>2012-09-14T16:49:48Z</time>
      </trkpt>
      <trkpt lat="45.39214" lon="3.75765">
        <ele>646.70001220703</ele>
        <time>2012-09-14T16:49:51Z</time>
      </trkpt>
      <trkpt lat="45.39215" lon="3.75771">
        <ele>646.20001220703</ele>
        <time>2012-09-14T16:49:53Z</time>
      </trkpt>
      <trkpt lat="45.39214" lon="3.75779">
        <ele>645.29998779297</ele>
        <time>2012-09-14T16:49:57Z</time>
      </trkpt>
      <trkpt lat="45.39214" lon="3.75786">
        <ele>643.90002441406</ele>
        <time>2012-09-14T16:50:00Z</time>
      </trkpt>
      <trkpt lat="45.39211" lon="3.75801">
        <ele>643.70001220703</ele>
        <time>2012-09-14T16:50:06Z</time>
      </trkpt>
      <trkpt lat="45.39207" lon="3.75811">
        <ele>642.70001220703</ele>
        <time>2012-09-14T16:50:10Z</time>
      </trkpt>
      <trkpt lat="45.39202" lon="3.75823">
        <ele>648.5</ele>
        <time>2012-09-14T16:50:16Z</time>
      </trkpt>
      <trkpt lat="45.39198" lon="3.7583">
        <ele>649.5</ele>
        <time>2012-09-14T16:50:20Z</time>
      </trkpt>
      <trkpt lat="45.39193" lon="3.75833">
        <ele>650.5</ele>
        <time>2012-09-14T16:50:23Z</time>
      </trkpt>
      <trkpt lat="45.39187" lon="3.75835">
        <ele>652.20001220703</ele>
        <time>2012-09-14T16:50:27Z</time>
      </trkpt>
      <trkpt lat="45.39181" lon="3.7584">
        <ele>652.70001220703</ele>
        <time>2012-09-14T16:50:29Z</time>
      </trkpt>
      <trkpt lat="45.3917" lon="3.7585">
        <ele>654.79998779297</ele>
        <time>2012-09-14T16:50:35Z</time>
      </trkpt>
      <trkpt lat="45.39166" lon="3.75857">
        <ele>653.79998779297</ele>
        <time>2012-09-14T16:50:38Z</time>
      </trkpt>
      <trkpt lat="45.39159" lon="3.75857">
        <ele>655.29998779297</ele>
        <time>2012-09-14T16:50:43Z</time>
      </trkpt>
      <trkpt lat="45.39154" lon="3.75861">
        <ele>655.59997558594</ele>
        <time>2012-09-14T16:50:46Z</time>
      </trkpt>
      <trkpt lat="45.39142" lon="3.75867">
        <ele>657.29998779297</ele>
        <time>2012-09-14T16:50:54Z</time>
      </trkpt>
      <trkpt lat="45.39136" lon="3.75869">
        <ele>655.29998779297</ele>
        <time>2012-09-14T16:50:59Z</time>
      </trkpt>
      <trkpt lat="45.39131" lon="3.75872">
        <ele>656.59997558594</ele>
        <time>2012-09-14T16:51:01Z</time>
      </trkpt>
      <trkpt lat="45.39125" lon="3.75877">
        <ele>656.5</ele>
        <time>2012-09-14T16:51:04Z</time>
      </trkpt>
      <trkpt lat="45.39122" lon="3.75882">
        <ele>653.59997558594</ele>
        <time>2012-09-14T16:51:07Z</time>
      </trkpt>
      <trkpt lat="45.39116" lon="3.75886">
        <ele>653</ele>
        <time>2012-09-14T16:51:11Z</time>
      </trkpt>
      <trkpt lat="45.39112" lon="3.75889">
        <ele>651.70001220703</ele>
        <time>2012-09-14T16:51:15Z</time>
      </trkpt>
      <trkpt lat="45.39106" lon="3.75895">
        <ele>651.20001220703</ele>
        <time>2012-09-14T16:51:20Z</time>
      </trkpt>
      <trkpt lat="45.39102" lon="3.75899">
        <ele>650.40002441406</ele>
        <time>2012-09-14T16:51:22Z</time>
      </trkpt>
      <trkpt lat="45.39096" lon="3.759">
        <ele>651</ele>
        <time>2012-09-14T16:51:27Z</time>
      </trkpt>
      <trkpt lat="45.39089" lon="3.75902">
        <ele>649.70001220703</ele>
        <time>2012-09-14T16:51:31Z</time>
      </trkpt>
      <trkpt lat="45.39078" lon="3.75908">
        <ele>649.20001220703</ele>
        <time>2012-09-14T16:51:38Z</time>
      </trkpt>
      <trkpt lat="45.39074" lon="3.75909">
        <ele>649</ele>
        <time>2012-09-14T16:51:41Z</time>
      </trkpt>
      <trkpt lat="45.39069" lon="3.75911">
        <ele>645.90002441406</ele>
        <time>2012-09-14T16:51:44Z</time>
      </trkpt>
      <trkpt lat="45.39056" lon="3.75924">
        <ele>648.20001220703</ele>
        <time>2012-09-14T16:51:54Z</time>
      </trkpt>
      <trkpt lat="45.39051" lon="3.75929">
        <ele>649.70001220703</ele>
        <time>2012-09-14T16:51:57Z</time>
      </trkpt>
      <trkpt lat="45.39049" lon="3.75936">
        <ele>650.29998779297</ele>
        <time>2012-09-14T16:52:00Z</time>
      </trkpt>
    </trkseg>
  </trk>
</gpx>